Time;durP1;ratioP1;P1;durP2;ratioP2;P2;SDS_P1;SDS_P2;PMS_P1;PMS_P2;Temp;Humidity;BMP_temperature;BMP_pressure;BME280_temperature;BME280_humidity;BME280_pressure;Samples;Min_cycle;Max_cycle;Signal;HPM_P1;HPM_P2
2021/05/02 00:01:29;;;;;;;1.05;0.60;;;;;;;;;;6182906;28;20133;-68
2021/05/02 00:04:30;;;;;;;1.40;0.73;;;;;;;;;;6176242;28;20145;-67
2021/05/02 00:07:31;;;;;;;1.85;0.52;;;;;;;;;;6185179;28;20133;-67
2021/05/02 00:10:34;;;;;;;1.40;0.50;;;;;;;;;;6185842;28;20465;-67
2021/05/02 00:13:37;;;;;;;2.63;0.60;;;;;;;;;;6189460;28;20046;-67
2021/05/02 00:16:38;;;;;;;0.77;0.43;;;;;;;;;;6185474;28;20070;-68
2021/05/02 00:19:40;;;;;;;1.00;0.50;;;;;;;;;;6185380;28;20403;-67
2021/05/02 00:22:44;;;;;;;0.95;0.50;;;;;;;;;;6185983;28;20072;-68
2021/05/02 00:25:50;;;;;;;0.95;0.55;;;;;;;;;;6181113;28;20054;-68
2021/05/02 00:28:53;;;;;;;1.23;0.52;;;;;;;;;;6182608;28;20143;-67
2021/05/02 00:31:54;;;;;;;1.73;0.63;;;;;;;;;;6187727;28;20050;-68
2021/05/02 00:34:55;;;;;;;0.90;0.70;;;;;;;;;;6189379;28;20549;-68
2021/05/02 00:37:57;;;;;;;1.98;0.80;;;;;;;;;;6183003;28;20405;-68
2021/05/02 00:40:59;;;;;;;1.60;0.77;;;;;;;;;;6181005;28;20046;-68
2021/05/02 00:44:04;;;;;;;0.90;0.70;;;;;;;;;;6174763;28;20050;-68
2021/05/02 00:47:11;;;;;;;1.08;0.80;;;;;;;;;;6181014;28;20053;-68
2021/05/02 00:50:16;;;;;;;1.30;0.80;;;;;;;;;;6186825;28;20911;-67
2021/05/02 00:53:31;;;;;;;1.00;0.80;;;;;;;;;;6180483;28;20046;-68
2021/05/02 00:56:35;;;;;;;1.08;0.90;;;;;;;;;;6174329;28;20453;-69
2021/05/02 00:59:47;;;;;;;1.63;0.82;;;;;;;;;;6174405;28;20054;-67
2021/05/02 01:02:55;;;;;;;1.20;0.90;;;;;;;;;;6167675;28;20046;-69
2021/05/02 01:05:57;;;;;;;1.95;1.20;;;;;;;;;;6175906;28;21276;-69
2021/05/02 01:09:00;;;;;;;1.00;0.80;;;;;;;;;;6172334;28;20062;-69
2021/05/02 01:12:02;;;;;;;1.65;0.82;;;;;;;;;;6189103;28;20418;-68
2021/05/02 01:15:06;;;;;;;1.45;0.70;;;;;;;;;;6179203;28;20502;-69
2021/05/02 01:18:08;;;;;;;;;;;;;;;;;;6178677;28;20565;-68
2021/05/02 01:21:13;;;;;;;0.85;0.52;;;;;;;;;;6176764;28;19933;-69
2021/05/02 01:24:16;;;;;;;0.77;0.47;;;;;;;;;;6185643;28;20054;-69
2021/05/02 01:27:29;;;;;;;1.65;0.60;;;;;;;;;;6187390;28;20545;-69
2021/05/02 01:30:30;;;;;;;0.55;0.43;;;;;;;;;;6191854;28;20134;-70
2021/05/02 01:33:31;;;;;;;1.88;0.40;;;;;;;;;;6192879;28;20053;-69
2021/05/02 01:36:32;;;;;;;3.13;0.50;;;;;;;;;;6190192;28;20045;-69
2021/05/02 01:39:36;;;;;;;0.95;0.55;;;;;;;;;;6179944;28;20034;-68
2021/05/02 01:42:37;;;;;;;0.60;0.40;;;;;;;;;;6179142;28;20048;-69
2021/05/02 01:45:38;;;;;;;0.40;0.40;;;;;;;;;;6172965;28;20133;-68
2021/05/02 01:48:40;;;;;;;0.38;0.32;;;;;;;;;;6173528;28;20631;-68
2021/05/02 01:51:41;;;;;;;1.08;0.60;;;;;;;;;;6185824;28;20051;-68
2021/05/02 01:54:43;;;;;;;0.70;0.50;;;;;;;;;;6187461;28;20157;-68
2021/05/02 01:57:45;;;;;;;0.47;0.30;;;;;;;;;;6175724;28;20519;-68
2021/05/02 02:00:51;;;;;;;0.57;0.32;;;;;;;;;;6179565;28;20104;-69
2021/05/02 02:03:52;;;;;;;0.95;0.50;;;;;;;;;;6188770;28;20078;-67
2021/05/02 02:06:55;;;;;;;0.60;0.40;;;;;;;;;;6189310;28;20049;-68
2021/05/02 02:09:57;;;;;;;0.50;0.35;;;;;;;;;;6189248;28;20089;-68
2021/05/02 02:12:58;;;;;;;1.52;0.75;;;;;;;;;;6183970;28;20409;-68
2021/05/02 02:16:03;;;;;;;1.40;0.25;;;;;;;;;;6176775;28;20092;-68
2021/05/02 02:19:04;;;;;;;0.57;0.40;;;;;;;;;;6179400;28;20061;-69
2021/05/02 02:22:06;;;;;;;0.43;0.40;;;;;;;;;;6174675;28;20453;-68
2021/05/02 02:25:11;;;;;;;0.73;0.50;;;;;;;;;;6187356;28;20068;-67
2021/05/02 02:28:14;;;;;;;1.58;0.60;;;;;;;;;;6191059;28;20545;-67
2021/05/02 02:31:15;;;;;;;0.50;0.40;;;;;;;;;;6184190;28;20046;-68
2021/05/02 02:34:16;;;;;;;0.50;0.40;;;;;;;;;;6180541;28;20050;-68
2021/05/02 02:37:19;;;;;;;0.68;0.40;;;;;;;;;;6183679;28;20681;-69
2021/05/02 02:40:22;;;;;;;0.50;0.40;;;;;;;;;;6189373;28;20050;-69
2021/05/02 02:43:25;;;;;;;0.70;0.47;;;;;;;;;;6183758;28;20051;-69
2021/05/02 02:46:28;;;;;;;1.85;0.60;;;;;;;;;;6173705;28;20133;-68
2021/05/02 02:49:33;;;;;;;0.77;0.47;;;;;;;;;;6181686;28;20061;-68
2021/05/02 02:52:44;;;;;;;0.93;0.60;;;;;;;;;;6194253;28;20086;-67
2021/05/02 02:55:54;;;;;;;1.35;0.80;;;;;;;;;;6180969;28;20038;-68
2021/05/02 03:02:28;;;;;;;1.58;0.80;;;;;;;;;;6193994;28;20077;-68
2021/05/02 03:05:32;;;;;;;0.82;0.50;;;;;;;;;;6176032;28;20087;-68
2021/05/02 03:08:33;;;;;;;;;;;;;;;;;;6184344;28;20138;-68
2021/05/02 03:11:35;;;;;;;0.88;0.55;;;;;;;;;;6179631;28;19925;-67
2021/05/02 03:14:37;;;;;;;0.80;0.50;;;;;;;;;;6183459;28;20133;-67
2021/05/02 03:17:41;;;;;;;1.20;0.52;;;;;;;;;;6184726;28;20116;-67
2021/05/02 03:20:46;;;;;;;0.75;0.40;;;;;;;;;;6174052;28;20561;-68
2021/05/02 03:23:50;;;;;;;0.50;0.40;;;;;;;;;;6182889;28;20057;-67
2021/05/02 03:26:54;;;;;;;4.43;0.35;;;;;;;;;;6184371;28;20129;-68
2021/05/02 03:29:56;;;;;;;2.47;0.30;;;;;;;;;;6178577;28;20177;-67
2021/05/02 03:33:00;;;;;;;0.40;0.30;;;;;;;;;;6176536;28;20097;-67
2021/05/02 03:36:06;;;;;;;0.60;0.30;;;;;;;;;;6177820;28;20681;-67
2021/05/02 03:39:07;;;;;;;1.30;0.32;;;;;;;;;;6182678;28;20046;-68
2021/05/02 03:42:10;;;;;;;0.93;0.40;;;;;;;;;;6179690;28;20134;-67
2021/05/02 03:45:11;;;;;;;0.93;0.50;;;;;;;;;;6186724;28;20096;-69
2021/05/02 03:48:12;;;;;;;1.20;0.30;;;;;;;;;;6179214;28;20154;-67
2021/05/02 03:51:13;;;;;;;1.48;0.50;;;;;;;;;;6169594;28;20525;-68
2021/05/02 03:54:14;;;;;;;0.63;0.50;;;;;;;;;;6169535;28;20055;-68
2021/05/02 03:57:16;;;;;;;1.17;0.40;;;;;;;;;;6176551;28;20157;-67
2021/05/02 04:00:19;;;;;;;0.50;0.47;;;;;;;;;;6182662;28;20042;-67
2021/05/02 04:03:20;;;;;;;1.35;0.70;;;;;;;;;;6175469;28;20069;-66
2021/05/02 04:06:21;;;;;;;1.00;0.52;;;;;;;;;;6186225;28;20143;-68
2021/05/02 04:09:22;;;;;;;0.88;0.47;;;;;;;;;;6179382;28;20046;-68
2021/05/02 04:12:24;;;;;;;0.45;0.30;;;;;;;;;;6180177;28;20046;-67
2021/05/02 04:15:25;;;;;;;1.58;0.40;;;;;;;;;;6182784;28;20054;-67
2021/05/02 04:18:30;;;;;;;1.58;0.47;;;;;;;;;;6185280;28;20049;-67
2021/05/02 04:21:32;;;;;;;1.13;0.50;;;;;;;;;;6186677;28;20058;-67
2021/05/02 04:24:33;;;;;;;1.33;0.40;;;;;;;;;;6177338;28;20054;-67
2021/05/02 04:27:35;;;;;;;0.60;0.47;;;;;;;;;;6179870;28;20489;-68
2021/05/02 04:30:36;;;;;;;0.55;0.32;;;;;;;;;;6177102;28;20619;-67
2021/05/02 04:33:37;;;;;;;1.88;0.60;;;;;;;;;;6180900;28;20048;-67
2021/05/02 04:36:38;;;;;;;0.60;0.40;;;;;;;;;;6173025;28;20052;-67
2021/05/02 04:39:39;;;;;;;1.10;0.40;;;;;;;;;;6178966;28;20113;-66
2021/05/02 04:42:41;;;;;;;2.33;0.35;;;;;;;;;;6183595;28;20046;-67
2021/05/02 04:45:42;;;;;;;0.88;0.47;;;;;;;;;;6177661;28;20489;-66
2021/05/02 04:48:44;;;;;;;1.30;0.25;;;;;;;;;;6175738;28;20990;-68
2021/05/02 04:51:45;;;;;;;3.45;0.32;;;;;;;;;;6171842;28;20046;-67
2021/05/02 04:54:46;;;;;;;1.10;0.43;;;;;;;;;;6172237;28;20469;-68
2021/05/02 04:57:48;;;;;;;1.50;0.50;;;;;;;;;;6174236;28;20485;-66
2021/05/02 05:00:49;;;;;;;0.73;0.35;;;;;;;;;;6177971;28;20068;-68
2021/05/02 05:03:50;;;;;;;0.73;0.40;;;;;;;;;;6185637;28;20063;-67
2021/05/02 05:06:51;;;;;;;0.82;0.60;;;;;;;;;;6178721;28;20724;-67
2021/05/02 05:09:52;;;;;;;0.60;0.40;;;;;;;;;;6180652;28;20047;-66
2021/05/02 05:12:54;;;;;;;0.90;0.50;;;;;;;;;;6180936;28;20089;-68
2021/05/02 05:15:56;;;;;;;0.55;0.40;;;;;;;;;;6171343;28;20092;-68
2021/05/02 05:18:57;;;;;;;0.57;0.40;;;;;;;;;;6174136;28;20498;-67
2021/05/02 05:21:58;;;;;;;0.63;0.50;;;;;;;;;;6174090;28;20534;-68
2021/05/02 05:24:59;;;;;;;1.48;0.70;;;;;;;;;;6172123;28;20050;-68
2021/05/02 05:28:01;;;;;;;0.85;0.60;;;;;;;;;;6182469;28;20096;-66
2021/05/02 05:31:02;;;;;;;3.00;0.70;;;;;;;;;;6183951;28;20145;-67
2021/05/02 05:34:03;;;;;;;0.88;0.57;;;;;;;;;;6194633;28;20060;-67
2021/05/02 05:37:04;;;;;;;1.02;0.60;;;;;;;;;;6192989;28;20780;-66
2021/05/02 05:40:07;;;;;;;1.30;0.60;;;;;;;;;;6195001;28;20690;-66
2021/05/02 05:43:09;;;;;;;1.15;0.70;;;;;;;;;;6188600;28;20046;-67
2021/05/02 05:46:13;;;;;;;1.00;0.60;;;;;;;;;;6170565;28;20050;-66
2021/05/02 05:49:17;;;;;;;;;;;;;;;;;;6178168;28;20137;-66
2021/05/02 05:52:18;;;;;;;3.63;0.80;;;;;;;;;;6170561;28;19926;-66
2021/05/02 05:55:20;;;;;;;1.48;0.70;;;;;;;;;;6175662;28;20129;-67
2021/05/02 05:58:22;;;;;;;1.27;0.80;;;;;;;;;;6190343;28;20054;-66
2021/05/02 06:01:23;;;;;;;1.55;0.73;;;;;;;;;;6188374;28;20149;-67
2021/05/02 06:04:24;;;;;;;1.40;0.73;;;;;;;;;;6195143;28;20046;-66
2021/05/02 06:07:25;;;;;;;1.30;0.63;;;;;;;;;;6190464;28;20042;-66
2021/05/02 06:10:26;;;;;;;2.15;0.60;;;;;;;;;;6187411;28;20055;-66
2021/05/02 06:13:28;;;;;;;0.98;0.70;;;;;;;;;;6193315;28;20130;-66
2021/05/02 06:16:30;;;;;;;1.67;0.65;;;;;;;;;;6175036;28;20056;-67
2021/05/02 06:19:31;;;;;;;0.82;0.40;;;;;;;;;;6173399;28;20170;-67
2021/05/02 06:22:32;;;;;;;1.15;0.60;;;;;;;;;;6172333;28;20134;-66
2021/05/02 06:25:33;;;;;;;0.90;0.57;;;;;;;;;;6173851;28;20042;-67
2021/05/02 06:28:35;;;;;;;1.00;0.57;;;;;;;;;;6176225;28;20054;-67
2021/05/02 06:31:36;;;;;;;2.25;0.55;;;;;;;;;;6175182;28;20042;-66
2021/05/02 06:34:37;;;;;;;1.00;0.43;;;;;;;;;;6174662;28;20038;-66
2021/05/02 06:37:38;;;;;;;1.23;0.52;;;;;;;;;;6173047;28;20050;-67
2021/05/02 06:40:39;;;;;;;0.95;0.50;;;;;;;;;;6174872;28;20057;-66
2021/05/02 06:43:41;;;;;;;0.95;0.68;;;;;;;;;;6172192;28;20068;-67
2021/05/02 06:46:42;;;;;;;0.60;0.40;;;;;;;;;;6173586;28;20440;-67
2021/05/02 06:49:43;;;;;;;0.57;0.30;;;;;;;;;;6172542;28;20058;-67
2021/05/02 06:52:44;;;;;;;1.85;0.43;;;;;;;;;;6179670;28;20042;-67
2021/05/02 06:55:45;;;;;;;0.52;0.30;;;;;;;;;;6175544;28;20050;-67
2021/05/02 06:58:47;;;;;;;1.13;0.45;;;;;;;;;;6185705;28;20050;-65
2021/05/02 07:01:48;;;;;;;1.30;0.43;;;;;;;;;;6186401;28;20132;-65
2021/05/02 07:04:49;;;;;;;1.42;0.60;;;;;;;;;;6184183;28;20128;-65
2021/05/02 07:07:52;;;;;;;0.73;0.40;;;;;;;;;;6176189;28;20149;-65
2021/05/02 07:10:53;;;;;;;0.85;0.50;;;;;;;;;;6176903;28;20144;-66
2021/05/02 07:13:55;;;;;;;1.65;0.40;;;;;;;;;;6177157;28;20049;-65
2021/05/02 07:16:56;;;;;;;1.20;0.60;;;;;;;;;;6184594;28;20052;-65
2021/05/02 07:19:57;;;;;;;0.77;0.52;;;;;;;;;;6188869;28;20056;-66
2021/05/02 07:22:59;;;;;;;1.00;0.50;;;;;;;;;;6182097;28;20138;-65
2021/05/02 07:26:00;;;;;;;1.10;0.70;;;;;;;;;;6189656;28;20069;-65
2021/05/02 07:29:02;;;;;;;1.00;0.65;;;;;;;;;;6173199;28;20529;-66
2021/05/02 07:32:04;;;;;;;0.75;0.60;;;;;;;;;;6204102;28;20141;-65
2021/05/02 07:35:06;;;;;;;0.80;0.60;;;;;;;;;;6190862;28;20445;-66
2021/05/02 07:38:07;;;;;;;3.08;1.15;;;;;;;;;;6187510;28;20970;-67
2021/05/02 07:41:10;;;;;;;3.80;2.60;;;;;;;;;;6183456;28;20050;-66
2021/05/02 07:44:12;;;;;;;1.10;1.00;;;;;;;;;;6187670;28;20573;-66
2021/05/02 07:47:13;;;;;;;1.80;1.10;;;;;;;;;;6182468;28;26238;-66
2021/05/02 07:50:14;;;;;;;2.03;1.40;;;;;;;;;;6184581;28;20144;-66
2021/05/02 07:53:17;;;;;;;2.35;1.60;;;;;;;;;;6174514;28;20523;-66
2021/05/02 07:56:18;;;;;;;4.28;1.80;;;;;;;;;;6181953;28;20081;-66
2021/05/02 07:59:20;;;;;;;3.95;2.53;;;;;;;;;;6189928;28;20405;-66
2021/05/02 08:02:22;;;;;;;2.80;2.17;;;;;;;;;;6191529;28;20117;-65
2021/05/02 08:05:23;;;;;;;4.25;3.08;;;;;;;;;;6188553;28;20549;-66
2021/05/02 08:08:25;;;;;;;3.25;3.00;;;;;;;;;;6190622;28;20069;-65
2021/05/02 08:11:26;;;;;;;3.70;2.88;;;;;;;;;;6190442;28;20105;-66
2021/05/02 08:14:28;;;;;;;3.45;2.65;;;;;;;;;;6193855;28;20133;-66
2021/05/02 08:17:29;;;;;;;2.35;2.15;;;;;;;;;;6189064;28;20089;-66
2021/05/02 08:20:30;;;;;;;2.53;2.10;;;;;;;;;;6193528;28;20045;-65
2021/05/02 08:23:31;;;;;;;1.73;1.50;;;;;;;;;;6189378;28;20159;-66
2021/05/02 08:26:32;;;;;;;1.58;1.48;;;;;;;;;;6189109;28;20121;-66
2021/05/02 08:29:34;;;;;;;1.25;1.13;;;;;;;;;;6189982;28;20188;-67
2021/05/02 08:32:35;;;;;;;2.75;1.50;;;;;;;;;;6186466;28;20046;-66
2021/05/02 08:35:36;;;;;;;1.35;1.20;;;;;;;;;;6191836;28;20640;-66
2021/05/02 08:38:37;;;;;;;2.15;1.13;;;;;;;;;;6193680;28;20120;-67
2021/05/02 08:41:39;;;;;;;1.98;1.10;;;;;;;;;;6186957;28;20652;-66
2021/05/02 08:44:41;;;;;;;0.65;0.57;;;;;;;;;;6188035;28;20054;-67
2021/05/02 08:47:42;;;;;;;0.73;0.70;;;;;;;;;;6189290;28;20233;-66
2021/05/02 08:50:43;;;;;;;1.88;0.70;;;;;;;;;;6189524;28;20181;-66
2021/05/02 08:53:45;;;;;;;0.90;0.50;;;;;;;;;;6184627;28;20719;-65
2021/05/02 08:56:46;;;;;;;2.25;0.82;;;;;;;;;;6187235;28;20038;-66
2021/05/02 08:59:48;;;;;;;1.05;0.40;;;;;;;;;;6188315;28;20042;-66
2021/05/02 09:02:53;;;;;;;0.93;0.60;;;;;;;;;;6190522;28;20109;-65
2021/05/02 09:05:55;;;;;;;1.40;0.50;;;;;;;;;;6188099;28;20047;-66
2021/05/02 09:08:57;;;;;;;1.77;0.50;;;;;;;;;;6184664;28;20050;-65
2021/05/02 09:11:58;;;;;;;1.17;0.40;;;;;;;;;;6180757;28;20046;-67
2021/05/02 09:15:03;;;;;;;0.45;0.40;;;;;;;;;;6180470;28;20487;-68
2021/05/02 09:18:13;;;;;;;1.58;0.50;;;;;;;;;;6189446;28;20089;-67
2021/05/02 09:21:18;;;;;;;0.30;0.30;;;;;;;;;;6186120;28;20073;-66
2021/05/02 09:24:24;;;;;;;0.50;0.40;;;;;;;;;;6189192;28;20145;-67
2021/05/02 09:27:25;;;;;;;1.13;0.70;;;;;;;;;;6198307;28;20054;-67
2021/05/02 09:30:28;;;;;;;0.52;0.38;;;;;;;;;;6193901;28;20145;-68
2021/05/02 09:33:29;;;;;;;0.63;0.40;;;;;;;;;;6190816;28;20145;-67
2021/05/02 09:36:30;;;;;;;0.50;0.30;;;;;;;;;;6175099;28;20185;-68
2021/05/02 09:39:45;;;;;;;1.92;0.40;;;;;;;;;;6176075;28;20044;-68
2021/05/02 09:42:48;;;;;;;2.13;0.63;;;;;;;;;;6169345;28;20545;-68
2021/05/02 09:46:04;;;;;;;;;;;;;;;;;;6172495;28;20043;-69
2021/05/02 09:49:15;;;;;;;2.55;0.50;;;;;;;;;;6189465;28;19921;-71
2021/05/02 09:52:16;;;;;;;3.10;0.60;;;;;;;;;;6187385;28;20048;-71
2021/05/02 09:55:19;;;;;;;5.55;3.90;;;;;;;;;;6181506;28;20164;-70
2021/05/02 09:58:22;;;;;;;;;;;;;;;;;;6191909;28;20137;-68
2021/05/02 10:01:23;;;;;;;0.70;0.40;;;;;;;;;;6193166;28;20036;-68
2021/05/02 10:04:30;;;;;;;1.17;0.50;;;;;;;;;;6196782;28;20058;-68
2021/05/02 10:07:31;;;;;;;1.15;0.50;;;;;;;;;;6193663;28;20130;-67
2021/05/02 10:10:32;;;;;;;1.02;0.40;;;;;;;;;;6184532;28;20050;-70
2021/05/02 10:13:34;;;;;;;0.38;0.30;;;;;;;;;;6186678;28;20048;-68
2021/05/02 10:16:36;;;;;;;0.60;0.47;;;;;;;;;;6174265;28;20071;-68
2021/05/02 10:19:38;;;;;;;0.55;0.32;;;;;;;;;;6170032;28;20051;-68
2021/05/02 10:22:39;;;;;;;0.47;0.40;;;;;;;;;;6169070;28;20120;-67
2021/05/02 10:25:41;;;;;;;2.95;0.50;;;;;;;;;;6171969;28;20063;-68
2021/05/02 10:28:46;;;;;;;1.35;0.50;;;;;;;;;;6172605;28;20043;-67
2021/05/02 10:31:48;;;;;;;0.82;0.40;;;;;;;;;;6172107;28;20516;-67
2021/05/02 10:34:51;;;;;;;1.85;1.15;;;;;;;;;;6171070;28;20126;-69
2021/05/02 10:37:53;;;;;;;1.60;0.70;;;;;;;;;;6168436;28;20043;-67
2021/05/02 10:41:24;;;;;;;1.00;0.50;;;;;;;;;;6176110;28;20059;-68
2021/05/02 10:44:31;;;;;;;1.42;0.40;;;;;;;;;;6176242;28;20086;-67
2021/05/02 10:47:42;;;;;;;0.73;0.55;;;;;;;;;;6175358;28;20105;-69
2021/05/02 10:50:45;;;;;;;1.38;0.50;;;;;;;;;;6173009;28;20065;-68
2021/05/02 10:54:02;;;;;;;1.88;0.63;;;;;;;;;;6171043;28;20137;-69
2021/05/02 10:57:04;;;;;;;1.33;0.70;;;;;;;;;;6186975;28;20084;-67
2021/05/02 11:00:07;;;;;;;1.13;0.40;;;;;;;;;;6182478;28;20049;-69
2021/05/02 11:03:08;;;;;;;1.50;1.05;;;;;;;;;;6180321;28;20082;-68
2021/05/02 11:06:11;;;;;;;1.25;0.50;;;;;;;;;;6174324;28;20130;-67
2021/05/02 11:09:13;;;;;;;;;;;;;;;;;;6174890;28;20150;-68
2021/05/02 11:12:29;;;;;;;1.95;0.50;;;;;;;;;;6181741;28;20433;-68
2021/05/02 11:15:37;;;;;;;0.70;0.40;;;;;;;;;;6171817;28;20050;-68
2021/05/02 11:18:50;;;;;;;2.35;0.75;;;;;;;;;;6168742;28;20046;-67
2021/05/02 11:25:39;;;;;;;0.95;0.50;;;;;;;;;;6284937;27;20703;-66
2021/05/02 11:28:45;;;;;;;1.55;0.60;;;;;;;;;;6262414;28;20132;-68
2021/05/02 11:31:46;;;;;;;1.05;0.60;;;;;;;;;;6262644;28;20479;-69
2021/05/02 11:34:51;;;;;;;1.48;0.50;;;;;;;;;;6264855;28;20057;-66
2021/05/02 11:37:53;;;;;;;0.73;0.40;;;;;;;;;;6253026;28;20120;-67
2021/05/02 11:41:03;;;;;;;0.70;0.47;;;;;;;;;;6253614;28;20049;-67
2021/05/02 11:44:10;;;;;;;1.25;0.40;;;;;;;;;;6255205;28;20045;-66
2021/05/02 11:47:12;;;;;;;2.85;0.70;;;;;;;;;;6250675;28;20136;-66
2021/05/02 11:50:14;;;;;;;1.95;0.57;;;;;;;;;;6253622;28;20064;-65
2021/05/02 11:53:31;;;;;;;0.63;0.50;;;;;;;;;;6251262;28;20135;-66
2021/05/02 11:56:34;;;;;;;1.27;0.95;;;;;;;;;;6253322;28;20140;-67
2021/05/02 11:59:48;;;;;;;0.90;0.40;;;;;;;;;;6254130;28;20049;-68
2021/05/02 12:02:49;;;;;;;0.55;0.40;;;;;;;;;;6252909;28;20057;-67
2021/05/02 12:05:51;;;;;;;1.33;0.50;;;;;;;;;;6243960;28;20586;-67
2021/05/02 12:08:53;;;;;;;2.22;0.50;;;;;;;;;;6253788;28;20133;-67
2021/05/02 12:11:56;;;;;;;0.52;0.47;;;;;;;;;;6244477;28;20144;-67
2021/05/02 12:14:59;;;;;;;0.88;0.40;;;;;;;;;;6242363;28;20623;-67
2021/05/02 12:18:01;;;;;;;1.88;0.50;;;;;;;;;;6249717;28;20088;-68
2021/05/02 12:21:13;;;;;;;0.80;0.50;;;;;;;;;;6249630;28;20076;-66
2021/05/02 12:24:17;;;;;;;0.60;0.50;;;;;;;;;;6249481;28;20061;-67
2021/05/02 12:27:19;;;;;;;1.08;0.38;;;;;;;;;;6256093;28;20052;-68
2021/05/02 12:30:21;;;;;;;2.17;0.70;;;;;;;;;;6273257;28;20060;-66
2021/05/02 12:33:22;;;;;;;0.40;0.40;;;;;;;;;;6267544;28;20076;-67
2021/05/02 12:36:27;;;;;;;2.60;0.55;;;;;;;;;;6264092;28;20059;-69
2021/05/02 12:39:30;;;;;;;0.98;0.45;;;;;;;;;;6256896;28;20040;-68
2021/05/02 12:42:34;;;;;;;2.72;1.88;;;;;;;;;;6262848;28;20049;-68
2021/05/02 12:45:42;;;;;;;0.70;0.50;;;;;;;;;;6252058;28;20048;-70
2021/05/02 12:48:43;;;;;;;1.23;0.63;;;;;;;;;;6250082;28;20050;-69
2021/05/02 12:51:46;;;;;;;0.80;0.50;;;;;;;;;;6255192;28;20045;-68
2021/05/02 12:54:47;;;;;;;0.98;0.45;;;;;;;;;;6254112;28;20056;-68
2021/05/02 12:57:51;;;;;;;1.00;0.40;;;;;;;;;;6254550;28;20049;-69
2021/05/02 13:00:57;;;;;;;0.98;0.50;;;;;;;;;;6250308;28;20124;-69
2021/05/02 13:03:59;;;;;;;1.63;0.40;;;;;;;;;;6249296;28;20066;-72
2021/05/02 13:07:00;;;;;;;1.13;0.40;;;;;;;;;;6252958;28;20048;-70
2021/05/02 13:10:04;;;;;;;2.05;0.50;;;;;;;;;;6256753;28;20091;-70
2021/05/02 13:13:07;;;;;;;0.63;0.43;;;;;;;;;;6252058;28;20080;-68
2021/05/02 13:16:08;;;;;;;1.25;0.45;;;;;;;;;;6250056;28;20049;-69
2021/05/02 13:19:21;;;;;;;1.67;0.45;;;;;;;;;;6252991;28;20053;-69
2021/05/02 13:22:24;;;;;;;0.40;0.30;;;;;;;;;;6253488;28;20152;-68
2021/05/02 13:25:25;;;;;;;2.38;0.43;;;;;;;;;;6249693;28;20078;-67
2021/05/02 13:28:27;;;;;;;89.00;6.72;;;;;;;;;;6252841;28;20046;-69
2021/05/02 13:31:46;;;;;;;1.07;0.37;;;;;;;;;;6251991;28;20076;-70
2021/05/02 13:34:47;;;;;;;14.55;0.93;;;;;;;;;;6250040;28;20068;-69
2021/05/02 13:37:48;;;;;;;0.90;0.50;;;;;;;;;;6249024;28;20059;-67
2021/05/02 13:40:49;;;;;;;11.32;1.50;;;;;;;;;;6243948;28;20522;-67
2021/05/02 13:44:03;;;;;;;1.05;0.52;;;;;;;;;;6254381;28;20132;-72
2021/05/02 13:47:04;;;;;;;0.90;0.50;;;;;;;;;;6244643;28;20136;-72
2021/05/02 13:50:07;;;;;;;0.95;0.50;;;;;;;;;;6248098;28;20059;-70
2021/05/02 13:53:08;;;;;;;0.47;0.32;;;;;;;;;;6253966;28;20053;-72
2021/05/02 13:56:09;;;;;;;1.15;0.47;;;;;;;;;;6254770;28;20182;-69
2021/05/02 13:59:11;;;;;;;0.77;0.30;;;;;;;;;;6254422;28;20049;-71
2021/05/02 14:02:12;;;;;;;3.33;1.13;;;;;;;;;;6255275;28;20073;-69
2021/05/02 14:05:15;;;;;;;2.25;0.90;;;;;;;;;;6252598;28;20052;-70
2021/05/02 14:08:16;;;;;;;0.82;0.50;;;;;;;;;;6258572;28;20524;-71
2021/05/02 14:11:17;;;;;;;2.40;0.38;;;;;;;;;;6259251;28;20077;-72
2021/05/02 14:14:19;;;;;;;0.73;0.30;;;;;;;;;;6253702;28;20053;-72
2021/05/02 14:17:20;;;;;;;2.05;0.32;;;;;;;;;;6256905;28;20511;-72
2021/05/02 14:20:21;;;;;;;0.55;0.30;;;;;;;;;;6247808;28;20496;-72
2021/05/02 14:23:23;;;;;;;0.60;0.40;;;;;;;;;;6253001;28;20687;-72
2021/05/02 14:26:24;;;;;;;0.68;0.40;;;;;;;;;;6245347;28;20405;-71
2021/05/02 14:29:26;;;;;;;3.38;1.40;;;;;;;;;;6242327;28;20525;-73
2021/05/02 14:32:27;;;;;;;0.55;0.30;;;;;;;;;;6261029;28;20055;-71
2021/05/02 14:35:29;;;;;;;1.02;0.32;;;;;;;;;;6251710;28;20095;-73
2021/05/02 14:38:31;;;;;;;0.32;0.20;;;;;;;;;;6254212;28;20077;-73
2021/05/02 14:41:32;;;;;;;0.20;0.20;;;;;;;;;;6258127;28;20056;-73
2021/05/02 14:44:34;;;;;;;0.40;0.32;;;;;;;;;;6244906;28;20044;-72
2021/05/02 14:47:35;;;;;;;3.42;0.40;;;;;;;;;;6250702;28;20123;-72
2021/05/02 14:50:36;;;;;;;0.90;0.22;;;;;;;;;;6248875;28;20437;-71
2021/05/02 14:53:37;;;;;;;0.20;0.20;;;;;;;;;;6244763;28;20136;-74
2021/05/02 14:56:38;;;;;;;1.75;0.30;;;;;;;;;;6247423;28;20064;-73
2021/05/02 14:59:40;;;;;;;1.58;0.20;;;;;;;;;;6253584;28;20530;-73
2021/05/02 15:02:42;;;;;;;1.15;0.30;;;;;;;;;;6257759;28;20156;-72
2021/05/02 15:05:43;;;;;;;0.20;0.20;;;;;;;;;;6252497;28;20073;-72
2021/05/02 15:08:44;;;;;;;0.65;0.25;;;;;;;;;;6259488;28;20045;-71
2021/05/02 15:11:46;;;;;;;0.57;0.40;;;;;;;;;;6256981;28;20109;-72
2021/05/02 15:14:48;;;;;;;0.77;0.60;;;;;;;;;;6257873;28;20041;-71
2021/05/02 15:17:51;;;;;;;0.40;0.35;;;;;;;;;;6254606;28;20128;-71
2021/05/02 15:20:52;;;;;;;0.75;0.20;;;;;;;;;;6258551;28;20199;-71
2021/05/02 15:23:53;;;;;;;0.30;0.22;;;;;;;;;;6256449;28;20495;-71
2021/05/02 15:26:54;;;;;;;0.50;0.30;;;;;;;;;;6259693;28;20141;-70
2021/05/02 15:29:57;;;;;;;0.60;0.40;;;;;;;;;;6253397;28;20464;-71
2021/05/02 15:32:58;;;;;;;0.80;0.40;;;;;;;;;;6247242;28;20044;-71
2021/05/02 15:35:59;;;;;;;1.00;0.45;;;;;;;;;;6257825;28;20107;-72
2021/05/02 15:39:00;;;;;;;0.40;0.30;;;;;;;;;;6252469;28;20037;-71
2021/05/02 15:42:01;;;;;;;0.40;0.30;;;;;;;;;;6252333;28;20068;-71
2021/05/02 15:45:05;;;;;;;0.88;0.50;;;;;;;;;;6251900;28;20699;-73
2021/05/02 15:48:06;;;;;;;0.50;0.20;;;;;;;;;;6254459;28;20135;-72
2021/05/02 15:51:07;;;;;;;0.35;0.30;;;;;;;;;;6257985;28;20128;-72
2021/05/02 15:54:09;;;;;;;0.47;0.40;;;;;;;;;;6254892;28;20357;-71
2021/05/02 15:57:10;;;;;;;0.65;0.30;;;;;;;;;;6255940;28;20103;-72
2021/05/02 16:00:14;;;;;;;1.20;0.38;;;;;;;;;;6259614;28;20128;-72
2021/05/02 16:03:15;;;;;;;1.65;0.50;;;;;;;;;;6261902;28;20068;-72
2021/05/02 16:06:16;;;;;;;2.38;0.50;;;;;;;;;;6258566;28;20128;-72
2021/05/02 16:09:17;;;;;;;2.72;1.00;;;;;;;;;;6254097;28;20116;-72
2021/05/02 16:12:19;;;;;;;0.85;0.47;;;;;;;;;;6261023;28;20136;-69
2021/05/02 16:15:21;;;;;;;0.40;0.20;;;;;;;;;;6260390;28;20049;-71
2021/05/02 16:18:23;;;;;;;0.13;0.10;;;;;;;;;;6260571;28;20112;-72
2021/05/02 16:21:27;;;;;;;0.63;0.30;;;;;;;;;;6264081;28;20742;-70
2021/05/02 16:24:28;;;;;;;0.93;0.45;;;;;;;;;;6257664;28;20452;-71
2021/05/02 16:27:29;;;;;;;0.77;0.50;;;;;;;;;;6258564;28;20095;-71
2021/05/02 16:30:31;;;;;;;13.13;1.40;;;;;;;;;;6263834;28;20053;-71
2021/05/02 16:33:32;;;;;;;6.05;0.77;;;;;;;;;;6263649;28;20139;-71
2021/05/02 16:36:33;;;;;;;1.48;0.60;;;;;;;;;;6261113;28;20115;-70
2021/05/02 16:39:35;;;;;;;0.30;0.30;;;;;;;;;;6262835;28;20756;-70
2021/05/02 16:42:37;;;;;;;0.88;0.40;;;;;;;;;;6261733;28;20041;-69
2021/05/02 16:45:38;;;;;;;0.20;0.20;;;;;;;;;;6256569;28;20481;-69
2021/05/02 16:48:40;;;;;;;0.80;0.45;;;;;;;;;;6258723;28;20111;-69
2021/05/02 16:51:41;;;;;;;1.02;0.60;;;;;;;;;;6258809;28;20052;-71
2021/05/02 16:54:42;;;;;;;0.88;0.50;;;;;;;;;;6247439;28;20668;-72
2021/05/02 16:57:43;;;;;;;0.57;0.30;;;;;;;;;;6258476;28;20424;-71
2021/05/02 17:00:45;;;;;;;0.35;0.30;;;;;;;;;;6259043;28;20140;-70
2021/05/02 17:03:46;;;;;;;1.15;0.40;;;;;;;;;;6249081;28;20480;-71
2021/05/02 17:06:47;;;;;;;2.58;1.23;;;;;;;;;;6257316;28;20049;-70
2021/05/02 17:09:48;;;;;;;4.80;1.10;;;;;;;;;;6257903;28;20155;-71
2021/05/02 17:12:51;;;;;;;3.03;0.85;;;;;;;;;;6260376;28;20167;-69
2021/05/02 17:15:53;;;;;;;3.30;0.85;;;;;;;;;;6253940;28;20045;-70
2021/05/02 17:18:54;;;;;;;6.40;1.63;;;;;;;;;;6257753;28;20135;-70
2021/05/02 17:21:55;;;;;;;3.08;1.15;;;;;;;;;;6260230;28;20053;-71
2021/05/02 17:24:57;;;;;;;3.05;1.08;;;;;;;;;;6251193;28;20077;-71
2021/05/02 17:27:58;;;;;;;7.38;2.00;;;;;;;;;;6254178;28;20059;-71
2021/05/02 17:31:00;;;;;;;6.00;1.52;;;;;;;;;;6256725;28;20046;-69
2021/05/02 17:34:01;;;;;;;5.22;1.60;;;;;;;;;;6257837;28;20047;-71
2021/05/02 17:37:02;;;;;;;4.03;1.33;;;;;;;;;;6251660;28;20541;-68
2021/05/02 17:40:05;;;;;;;6.60;1.30;;;;;;;;;;6252855;28;20567;-69
2021/05/02 17:43:06;;;;;;;5.32;1.40;;;;;;;;;;6254986;28;20482;-69
2021/05/02 17:46:09;;;;;;;3.33;1.20;;;;;;;;;;6257911;28;20045;-68
2021/05/02 17:49:11;;;;;;;3.22;1.33;;;;;;;;;;6253919;28;20049;-69
2021/05/02 17:52:12;;;;;;;2.60;0.90;;;;;;;;;;6257627;28;20073;-70
2021/05/02 17:55:15;;;;;;;2.25;1.10;;;;;;;;;;6258720;28;20519;-69
2021/05/02 17:58:16;;;;;;;6.23;1.27;;;;;;;;;;6255682;28;20131;-69
2021/05/02 18:01:19;;;;;;;1.98;1.00;;;;;;;;;;6255706;28;20800;-69
2021/05/02 18:04:20;;;;;;;4.55;1.10;;;;;;;;;;6258931;28;20045;-69
2021/05/02 18:07:21;;;;;;;2.28;0.93;;;;;;;;;;6253456;28;20050;-71
2021/05/02 18:10:22;;;;;;;3.75;1.00;;;;;;;;;;6251178;28;20055;-69
2021/05/02 18:13:23;;;;;;;1.88;1.10;;;;;;;;;;6256448;28;20134;-71
2021/05/02 18:16:25;;;;;;;1.48;1.02;;;;;;;;;;6261107;28;20136;-69
2021/05/02 18:19:26;;;;;;;2.28;1.00;;;;;;;;;;6255789;28;20084;-69
2021/05/02 18:22:27;;;;;;;2.75;1.27;;;;;;;;;;6256978;28;20052;-68
2021/05/02 18:25:28;;;;;;;2.47;1.00;;;;;;;;;;6255026;28;20057;-69